ADDS METAR Data INFO
IDs: Format: Raw Decoded Include TAF

Data at: 0840 UTC 27 Jun 2017

KSPS 270752Z AUTO 12004KT 9SM CLR 21/19 A3004 RMK AO2 SLP159 T02110194
KSPS 270652Z AUTO 00000KT 9SM CLR 21/19 A3005 RMK AO2 SLP162 T02060194
KSPS 270552Z AUTO 09003KT 10SM CLR 22/20 A3006 RMK AO2 SLP168 T02170200 10289 20217 403000194 51010
KSPS 270452Z AUTO 07004KT 10SM CLR 22/20 A3005 RMK AO2 SLP165 T02220200
KSPS 270352Z AUTO 13005KT 10SM CLR 23/21 A3004 RMK AO2 SLP160 T02330206
KSPS 270252Z AUTO 12006KT 10SM CLR 24/21 A3003 RMK AO2 SLP157 T02440206 53007
KSPS 270152Z AUTO 14007KT 10SM CLR 26/21 A3002 RMK AO2 SLP153 T02560206
KSPS 270052Z 13011KT 10SM CLR 28/20 A3001 RMK AO2 SLP151 T02780200
KSPS 262352Z 13009KT 10SM FEW037 SCT180 29/20 A3001 RMK AO2 SLP149 T02890200 10300 20261 56018
KSPS 262252Z 07009KT 10SM SCT037 BKN180 28/20 A3002 RMK AO2 SLP155 T02830200
KSPS 262152Z 11007KT 10SM SCT036 29/20 A3004 RMK AO2 SLP161 T02890200
KSPS 262052Z 10008KT 10SM SCT041 SCT065 BKN120 29/20 A3006 RMK AO2 SLP168 T02890200 58025
KSPS 261952Z 08005KT 10SM SCT020 BKN030 BKN120 28/21 A3009 RMK AO2 SLP177 T02830206
KSPS 261852Z 10004KT 10SM SCT023 BKN033 27/21 A3011 RMK AO2 SLP185 T02720206
KSPS 261752Z 16004KT 10SM SCT020 BKN120 26/21 A3014 RMK AO2 SLP193 T02610206 10261 20200 57013
KSPS 261652Z 12004KT 10SM SCT028 BKN120 26/20 A3015 RMK AO2 SLP197 T02560200
KSPS 261552Z VRB05KT 10SM FEW070 BKN120 24/19 A3017 RMK AO2 SLP203 T02440194
KSPS 261452Z 13006KT 10SM FEW037 OVC070 23/19 A3018 RMK AO2 SLP208 T02280189 50007
KSPS 261352Z 10005KT 10SM BKN075 OVC120 22/18 A3018 RMK AO2 SLP209 T02170178
KSPS 261252Z 09005KT 10SM BKN060 21/17 A3017 RMK AO2 SLP204 T02060172
KSPS 261152Z 09004KT 10SM CLR 20/17 A3016 RMK AO2 SLP199 T02000167 10222 20194 50001
KSPS 261052Z 00000KT 10SM OVC065 21/17 A3016 RMK AO2 SLP200 T02060167
KSPS 260952Z 17004KT 10SM CLR 20/16 A3015 RMK AO2 SLP199 T02000161
KSPS 260852Z AUTO 16004KT 10SM FEW120 20/16 A3015 RMK AO2 SLP198 T02000161 55004
KSPS 260752Z AUTO 15009KT 10SM CLR 22/16 A3014 RMK AO2 SLP195 T02170156
KSPS 260652Z AUTO 14007KT 10SM CLR 22/16 A3016 RMK AO2 SLP199 T02170161
KSPS 260552Z AUTO 12008KT 10SM FEW120 22/17 A3017 RMK AO2 SLP203 T02220167 10289 20222 402940178 50008
KSPS 260452Z AUTO 10006KT 10SM CLR 23/18 A3017 RMK AO2 SLP204 T02280178
KSPS 260352Z AUTO 11006KT 10SM CLR 23/18 A3015 RMK AO2 SLP197 T02280178
KSPS 260252Z AUTO 13006KT 10SM CLR 23/18 A3014 RMK AO2 SLP195 T02330178 52003
KSPS 260152Z AUTO 13006KT 10SM CLR 25/18 A3014 RMK AO2 SLP193 T02500178
KSPS 260052Z AUTO 12006KT 10SM CLR 28/16 A3014 RMK AO2 SLP193 T02780156
KSPS 252352Z AUTO 13007KT 10SM CLR 29/15 A3013 RMK AO2 SLP191 T02890150 10294 20272 56013
KSPS 252252Z AUTO 12009KT 10SM CLR 29/16 A3013 RMK AO2 SLP192 T02890156
KSPS 252152Z 12008KT 10SM FEW050 SCT120 SCT200 29/16 A3015 RMK AO2 SLP197 T02890156
KSPS 252052Z 15009KT 10SM FEW050 SCT120 BKN200 29/16 A3017 RMK AO2 SLP204 T02940161 58027


Page loaded:  08:40 UTC  |   01:40 AM Pacific  |   02:40 AM Mountain  |   03:40 AM Central  |   04:40 AM Eastern

 

ADVISORIES

FORECASTS

FORECASTS

OBSERVATIONS

USER TOOLS

ABOUT US